sensor_id;sensor_type;location;lat;lon;timestamp;pressure;altitude;pressure_sealevel;temperature;humidity
71857;BME280;63344;46.980;28.882;2023-08-06T00:00:00;99767.91;;;23.15;68.67
71857;BME280;63344;46.980;28.882;2023-08-06T00:02:27;99769.59;;;23.16;68.58
71857;BME280;63344;46.980;28.882;2023-08-06T00:04:57;99762.16;;;23.18;68.47
71857;BME280;63344;46.980;28.882;2023-08-06T00:07:29;99758.94;;;23.22;68.54
71857;BME280;63344;46.980;28.882;2023-08-06T00:09:57;99752.38;;;23.25;68.79
71857;BME280;63344;46.980;28.882;2023-08-06T00:12:24;99754.06;;;23.26;68.71
71857;BME280;63344;46.980;28.882;2023-08-06T00:14:55;99752.03;;;23.28;68.67
71857;BME280;63344;46.980;28.882;2023-08-06T00:17:41;99756.31;;;23.31;68.36
71857;BME280;63344;46.980;28.882;2023-08-06T00:20:45;99754.28;;;23.33;68.60
71857;BME280;63344;46.980;28.882;2023-08-06T00:23:27;99747.97;;;23.32;68.11
71857;BME280;63344;46.980;28.882;2023-08-06T00:26:18;99749.00;;;23.31;68.39
71857;BME280;63344;46.980;28.882;2023-08-06T00:28:51;99747.16;;;23.32;69.03
71857;BME280;63344;46.980;28.882;2023-08-06T00:31:21;99732.06;;;23.29;69.14
71857;BME280;63344;46.980;28.882;2023-08-06T00:33:49;99735.31;;;23.33;68.84
71857;BME280;63344;46.980;28.882;2023-08-06T00:36:22;99729.19;;;23.31;68.99
71857;BME280;63344;46.980;28.882;2023-08-06T00:38:49;99732.06;;;23.29;69.17
71857;BME280;63344;46.980;28.882;2023-08-06T00:41:17;99724.94;;;23.28;68.88
71857;BME280;63344;46.980;28.882;2023-08-06T00:43:49;99718.69;;;23.27;68.92
71857;BME280;63344;46.980;28.882;2023-08-06T00:46:17;99718.00;;;23.25;69.33
71857;BME280;63344;46.980;28.882;2023-08-06T00:48:46;99723.41;;;23.25;69.57
71857;BME280;63344;46.980;28.882;2023-08-06T00:51:19;99715.59;;;23.22;69.44
71857;BME280;63344;46.980;28.882;2023-08-06T00:53:47;99713.75;;;23.23;69.79
71857;BME280;63344;46.980;28.882;2023-08-06T00:56:22;99719.34;;;23.21;69.60
71857;BME280;63344;46.980;28.882;2023-08-06T00:58:50;99718.81;;;23.18;69.35
71857;BME280;63344;46.980;28.882;2023-08-06T01:01:44;99721.50;;;23.18;69.71
71857;BME280;63344;46.980;28.882;2023-08-06T01:04:12;99716.59;;;23.13;69.46
71857;BME280;63344;46.980;28.882;2023-08-06T01:06:47;99714.03;;;23.12;70.09
71857;BME280;63344;46.980;28.882;2023-08-06T01:09:45;99715.38;;;23.08;70.08
71857;BME280;63344;46.980;28.882;2023-08-06T01:15:15;99709.91;;;22.99;70.59
71857;BME280;63344;46.980;28.882;2023-08-06T01:17:45;99711.09;;;22.97;70.77
71857;BME280;63344;46.980;28.882;2023-08-06T01:20:13;99706.50;;;22.97;71.01
71857;BME280;63344;46.980;28.882;2023-08-06T01:22:43;99712.75;;;22.98;71.01
71857;BME280;63344;46.980;28.882;2023-08-06T01:25:33;99705.97;;;22.94;71.62
71857;BME280;63344;46.980;28.882;2023-08-06T01:31:14;99708.75;;;22.76;71.89
71857;BME280;63344;46.980;28.882;2023-08-06T01:33:46;99704.47;;;22.65;72.14
71857;BME280;63344;46.980;28.882;2023-08-06T01:36:25;99694.75;;;22.54;72.48
71857;BME280;63344;46.980;28.882;2023-08-06T01:38:56;99696.25;;;22.48;72.81
71857;BME280;63344;46.980;28.882;2023-08-06T01:41:24;99690.47;;;22.43;72.92
71857;BME280;63344;46.980;28.882;2023-08-06T01:43:54;99687.06;;;22.41;73.25
71857;BME280;63344;46.980;28.882;2023-08-06T01:46:23;99686.53;;;22.38;73.33
71857;BME280;63344;46.980;28.882;2023-08-06T01:48:51;99687.72;;;22.35;73.70
71857;BME280;63344;46.980;28.882;2023-08-06T01:51:18;99689.88;;;22.32;74.00
71857;BME280;63344;46.980;28.882;2023-08-06T01:53:47;99679.53;;;22.27;73.95
71857;BME280;63344;46.980;28.882;2023-08-06T01:56:17;99677.25;;;22.22;74.40
71857;BME280;63344;46.980;28.882;2023-08-06T01:58:50;99674.06;;;22.19;74.74
71857;BME280;63344;46.980;28.882;2023-08-06T02:01:18;99663.53;;;22.16;74.74
71857;BME280;63344;46.980;28.882;2023-08-06T02:03:46;99655.91;;;22.11;75.07
71857;BME280;63344;46.980;28.882;2023-08-06T02:06:15;99659.59;;;22.10;74.96
71857;BME280;63344;46.980;28.882;2023-08-06T02:08:45;99662.44;;;22.08;75.51
71857;BME280;63344;46.980;28.882;2023-08-06T02:13:46;99648.88;;;22.00;75.82
71857;BME280;63344;46.980;28.882;2023-08-06T02:16:15;99640.94;;;21.99;75.99
71857;BME280;63344;46.980;28.882;2023-08-06T02:18:51;99638.69;;;21.94;75.80
71857;BME280;63344;46.980;28.882;2023-08-06T02:21:19;99637.16;;;21.92;76.27
71857;BME280;63344;46.980;28.882;2023-08-06T02:23:47;99637.31;;;21.90;76.65
71857;BME280;63344;46.980;28.882;2023-08-06T02:26:14;99642.88;;;21.88;76.60
71857;BME280;63344;46.980;28.882;2023-08-06T02:28:43;99644.03;;;21.86;76.68
71857;BME280;63344;46.980;28.882;2023-08-06T02:31:10;99642.34;;;21.85;76.98
71857;BME280;63344;46.980;28.882;2023-08-06T02:33:40;99646.19;;;21.82;76.98
71857;BME280;63344;46.980;28.882;2023-08-06T02:36:08;99641.13;;;21.79;77.28
71857;BME280;63344;46.980;28.882;2023-08-06T02:38:37;99641.41;;;21.76;77.72
71857;BME280;63344;46.980;28.882;2023-08-06T02:41:05;99638.84;;;21.75;78.18
71857;BME280;63344;46.980;28.882;2023-08-06T02:43:33;99641.56;;;21.75;78.13
71857;BME280;63344;46.980;28.882;2023-08-06T02:46:00;99654.47;;;21.81;78.22
71857;BME280;63344;46.980;28.882;2023-08-06T02:48:29;99650.97;;;21.88;78.58
71857;BME280;63344;46.980;28.882;2023-08-06T02:50:59;99645.97;;;21.94;78.91
71857;BME280;63344;46.980;28.882;2023-08-06T02:53:31;99660.03;;;21.97;78.59
71857;BME280;63344;46.980;28.882;2023-08-06T02:55:58;99663.25;;;22.01;78.82
71857;BME280;63344;46.980;28.882;2023-08-06T02:58:26;99663.78;;;22.04;78.77
71857;BME280;63344;46.980;28.882;2023-08-06T03:01:11;99667.84;;;22.08;78.64
71857;BME280;63344;46.980;28.882;2023-08-06T03:03:39;99661.47;;;22.10;78.84
71857;BME280;63344;46.980;28.882;2023-08-06T03:06:07;99662.44;;;22.08;78.29
71857;BME280;63344;46.980;28.882;2023-08-06T03:08:35;99658.41;;;22.13;78.89
71857;BME280;63344;46.980;28.882;2023-08-06T03:11:21;99661.03;;;22.22;78.92
71857;BME280;63344;46.980;28.882;2023-08-06T03:13:51;99650.13;;;22.32;79.12
71857;BME280;63344;46.980;28.882;2023-08-06T03:16:21;99647.72;;;22.47;79.35
71857;BME280;63344;46.980;28.882;2023-08-06T03:18:49;99648.63;;;22.64;79.31
71857;BME280;63344;46.980;28.882;2023-08-06T03:21:16;99657.00;;;22.79;79.14
71857;BME280;63344;46.980;28.882;2023-08-06T03:23:47;99655.56;;;23.01;79.26
71857;BME280;63344;46.980;28.882;2023-08-06T03:26:16;99650.56;;;23.22;78.82
71857;BME280;63344;46.980;28.882;2023-08-06T03:28:44;99646.72;;;23.41;78.42
71857;BME280;63344;46.980;28.882;2023-08-06T03:31:12;99646.06;;;23.56;77.64
71857;BME280;63344;46.980;28.882;2023-08-06T03:33:44;99649.81;;;23.71;76.85
71857;BME280;63344;46.980;28.882;2023-08-06T03:36:11;99660.03;;;23.94;76.58
71857;BME280;63344;46.980;28.882;2023-08-06T03:38:39;99653.56;;;24.11;76.83
71857;BME280;63344;46.980;28.882;2023-08-06T03:41:06;99643.19;;;24.31;76.94
71857;BME280;63344;46.980;28.882;2023-08-06T03:43:44;99642.81;;;24.59;75.97
71857;BME280;63344;46.980;28.882;2023-08-06T03:46:14;99635.41;;;24.84;74.93
71857;BME280;63344;46.980;28.882;2023-08-06T03:48:45;99633.06;;;25.12;74.47
71857;BME280;63344;46.980;28.882;2023-08-06T03:51:26;99636.66;;;25.44;73.63
71857;BME280;63344;46.980;28.882;2023-08-06T03:53:54;99633.94;;;25.67;72.67
71857;BME280;63344;46.980;28.882;2023-08-06T03:56:23;99621.91;;;25.84;71.25
71857;BME280;63344;46.980;28.882;2023-08-06T03:58:53;99613.44;;;26.02;69.96
71857;BME280;63344;46.980;28.882;2023-08-06T04:01:23;99607.38;;;26.30;69.37
71857;BME280;63344;46.980;28.882;2023-08-06T04:04:08;99611.25;;;26.66;68.16
71857;BME280;63344;46.980;28.882;2023-08-06T04:06:51;99614.22;;;27.00;67.38
71857;BME280;63344;46.980;28.882;2023-08-06T04:10:13;99617.00;;;27.44;65.53
71857;BME280;63344;46.980;28.882;2023-08-06T04:13:13;99614.00;;;27.81;65.13
71857;BME280;63344;46.980;28.882;2023-08-06T04:16:05;99621.03;;;28.12;64.08
71857;BME280;63344;46.980;28.882;2023-08-06T04:18:49;99613.19;;;28.37;62.23
71857;BME280;63344;46.980;28.882;2023-08-06T04:21:42;99611.69;;;28.56;61.23
71857;BME280;63344;46.980;28.882;2023-08-06T04:24:27;99605.88;;;28.73;59.77
71857;BME280;63344;46.980;28.882;2023-08-06T04:27:12;99607.22;;;28.97;59.26
71857;BME280;63344;46.980;28.882;2023-08-06T04:29:56;99601.88;;;29.24;58.84
71857;BME280;63344;46.980;28.882;2023-08-06T04:32:39;99596.47;;;29.50;58.67
71857;BME280;63344;46.980;28.882;2023-08-06T04:35:31;99596.06;;;29.67;56.16
71857;BME280;63344;46.980;28.882;2023-08-06T04:38:25;99588.94;;;29.72;53.11
71857;BME280;63344;46.980;28.882;2023-08-06T04:41:32;99585.94;;;29.41;52.12
71857;BME280;63344;46.980;28.882;2023-08-06T04:44:07;99584.41;;;29.18;52.54
71857;BME280;63344;46.980;28.882;2023-08-06T04:47:23;99580.00;;;29.24;53.38
71857;BME280;63344;46.980;28.882;2023-08-06T04:50:09;99577.03;;;29.18;52.38
71857;BME280;63344;46.980;28.882;2023-08-06T04:52:52;99582.19;;;28.93;51.95
71857;BME280;63344;46.980;28.882;2023-08-06T04:55:56;99580.25;;;28.80;51.89
71857;BME280;63344;46.980;28.882;2023-08-06T04:58:58;99570.97;;;28.75;52.26
71857;BME280;63344;46.980;28.882;2023-08-06T05:01:55;99589.97;;;28.90;53.22
71857;BME280;63344;46.980;28.882;2023-08-06T05:04:52;99589.66;;;29.13;53.03
71857;BME280;63344;46.980;28.882;2023-08-06T05:08:02;99583.59;;;29.37;50.51
71857;BME280;63344;46.980;28.882;2023-08-06T05:10:36;99574.69;;;29.09;51.11
71857;BME280;63344;46.980;28.882;2023-08-06T05:13:36;99571.94;;;29.02;51.23
71857;BME280;63344;46.980;28.882;2023-08-06T05:16:33;99569.38;;;28.94;51.20
71857;BME280;63344;46.980;28.882;2023-08-06T05:19:17;99554.81;;;28.80;51.59
71857;BME280;63344;46.980;28.882;2023-08-06T05:22:02;99553.28;;;28.64;52.15
71857;BME280;63344;46.980;28.882;2023-08-06T05:25:37;99562.34;;;28.71;51.96
71857;BME280;63344;46.980;28.882;2023-08-06T05:28:30;99555.38;;;28.62;52.59
71857;BME280;63344;46.980;28.882;2023-08-06T05:31:35;99553.56;;;28.89;53.07
71857;BME280;63344;46.980;28.882;2023-08-06T05:34:13;99555.53;;;29.09;51.89
71857;BME280;63344;46.980;28.882;2023-08-06T05:37:06;99558.13;;;29.44;51.51
71857;BME280;63344;46.980;28.882;2023-08-06T05:39:40;99549.13;;;29.83;52.01
71857;BME280;63344;46.980;28.882;2023-08-06T05:42:25;99546.41;;;29.90;50.25
71857;BME280;63344;46.980;28.882;2023-08-06T05:45:11;99545.94;;;29.39;51.14
71857;BME280;63344;46.980;28.882;2023-08-06T05:47:52;99541.13;;;28.73;53.11
71857;BME280;63344;46.980;28.882;2023-08-06T05:50:39;99536.66;;;28.24;55.25
71857;BME280;63344;46.980;28.882;2023-08-06T05:53:26;99539.81;;;27.93;55.47
71857;BME280;63344;46.980;28.882;2023-08-06T05:56:06;99544.00;;;27.89;56.10
71857;BME280;63344;46.980;28.882;2023-08-06T05:58:49;99540.47;;;27.73;56.85
71857;BME280;63344;46.980;28.882;2023-08-06T06:01:39;99543.13;;;27.60;57.68
71857;BME280;63344;46.980;28.882;2023-08-06T06:04:28;99543.38;;;27.44;58.60
71857;BME280;63344;46.980;28.882;2023-08-06T06:07:10;99533.25;;;27.37;58.74
71857;BME280;63344;46.980;28.882;2023-08-06T06:10:27;99539.75;;;27.36;58.80
71857;BME280;63344;46.980;28.882;2023-08-06T06:13:16;99538.97;;;27.42;58.81
71857;BME280;63344;46.980;28.882;2023-08-06T06:15:48;99534.41;;;27.50;59.06
71857;BME280;63344;46.980;28.882;2023-08-06T06:18:41;99523.09;;;27.53;59.58
71857;BME280;63344;46.980;28.882;2023-08-06T06:21:36;99513.03;;;27.53;59.90
71857;BME280;63344;46.980;28.882;2023-08-06T06:24:34;99512.84;;;27.55;60.10
71857;BME280;63344;46.980;28.882;2023-08-06T06:27:31;99522.78;;;27.63;60.07
71857;BME280;63344;46.980;28.882;2023-08-06T06:30:10;99505.59;;;27.69;60.18
71857;BME280;63344;46.980;28.882;2023-08-06T06:32:53;99504.63;;;27.76;60.35
71857;BME280;63344;46.980;28.882;2023-08-06T06:35:36;99505.19;;;27.72;61.03
71857;BME280;63344;46.980;28.882;2023-08-06T06:38:41;99505.78;;;27.67;60.87
71857;BME280;63344;46.980;28.882;2023-08-06T06:41:25;99498.72;;;27.73;60.65
71857;BME280;63344;46.980;28.882;2023-08-06T06:44:13;99509.44;;;27.74;60.74
71857;BME280;63344;46.980;28.882;2023-08-06T06:50:55;99496.19;;;27.71;60.41
71857;BME280;63344;46.980;28.882;2023-08-06T06:53:36;99489.53;;;27.80;60.92
71857;BME280;63344;46.980;28.882;2023-08-06T06:56:21;99486.69;;;27.89;61.12
71857;BME280;63344;46.980;28.882;2023-08-06T06:58:58;99496.59;;;27.96;60.69
71857;BME280;63344;46.980;28.882;2023-08-06T07:01:45;99494.31;;;28.00;60.92
71857;BME280;63344;46.980;28.882;2023-08-06T07:04:52;99493.91;;;28.03;60.48
71857;BME280;63344;46.980;28.882;2023-08-06T07:07:52;99486.59;;;28.10;60.92
71857;BME280;63344;46.980;28.882;2023-08-06T07:10:48;99477.78;;;28.15;60.46
71857;BME280;63344;46.980;28.882;2023-08-06T07:13:45;99485.16;;;28.21;60.76
71857;BME280;63344;46.980;28.882;2023-08-06T07:16:44;99492.56;;;28.27;60.78
71857;BME280;63344;46.980;28.882;2023-08-06T07:19:30;99484.78;;;28.24;60.25
71857;BME280;63344;46.980;28.882;2023-08-06T07:22:31;99478.72;;;28.35;59.59
71857;BME280;63344;46.980;28.882;2023-08-06T07:25:29;99471.41;;;28.49;59.12
71857;BME280;63344;46.980;28.882;2023-08-06T07:28:21;99463.69;;;28.53;59.00
71857;BME280;63344;46.980;28.882;2023-08-06T07:31:03;99457.41;;;28.59;58.98
71857;BME280;63344;46.980;28.882;2023-08-06T07:33:54;99467.31;;;28.67;57.90
71857;BME280;63344;46.980;28.882;2023-08-06T07:36:43;99461.47;;;28.76;57.62
71857;BME280;63344;46.980;28.882;2023-08-06T07:39:28;99466.97;;;28.90;57.83
71857;BME280;63344;46.980;28.882;2023-08-06T07:42:32;99469.91;;;29.02;57.21
71857;BME280;63344;46.980;28.882;2023-08-06T07:45:34;99469.09;;;29.08;56.70
71857;BME280;63344;46.980;28.882;2023-08-06T07:48:22;99460.91;;;29.14;56.40
71857;BME280;63344;46.980;28.882;2023-08-06T07:51:09;99459.25;;;29.20;56.38
71857;BME280;63344;46.980;28.882;2023-08-06T07:54:11;99468.28;;;29.34;55.50
71857;BME280;63344;46.980;28.882;2023-08-06T07:56:55;99469.31;;;29.39;55.33
71857;BME280;63344;46.980;28.882;2023-08-06T08:00:02;99460.06;;;29.54;55.36
71857;BME280;63344;46.980;28.882;2023-08-06T08:03:13;99462.78;;;29.61;54.70
71857;BME280;63344;46.980;28.882;2023-08-06T08:06:07;99458.34;;;29.79;53.58
71857;BME280;63344;46.980;28.882;2023-08-06T08:08:57;99458.53;;;29.98;53.30
71857;BME280;63344;46.980;28.882;2023-08-06T08:11:55;99459.94;;;30.21;52.61
71857;BME280;63344;46.980;28.882;2023-08-06T08:14:42;99451.88;;;30.39;51.95
71857;BME280;63344;46.980;28.882;2023-08-06T08:17:20;99449.50;;;30.56;51.38
71857;BME280;63344;46.980;28.882;2023-08-06T08:20:20;99443.91;;;30.76;51.12
71857;BME280;63344;46.980;28.882;2023-08-06T08:23:06;99447.56;;;31.02;50.46
71857;BME280;63344;46.980;28.882;2023-08-06T08:25:55;99449.78;;;31.11;49.71
71857;BME280;63344;46.980;28.882;2023-08-06T08:28:48;99444.03;;;31.20;49.33
71857;BME280;63344;46.980;28.882;2023-08-06T08:31:44;99445.81;;;31.32;49.31
71857;BME280;63344;46.980;28.882;2023-08-06T08:35:08;99424.59;;;31.71;48.32
71857;BME280;63344;46.980;28.882;2023-08-06T08:37:42;99432.19;;;32.62;46.21
71857;BME280;63344;46.980;28.882;2023-08-06T08:40:37;99431.41;;;33.15;45.02
71857;BME280;63344;46.980;28.882;2023-08-06T08:43:24;99412.03;;;33.57;43.96
71857;BME280;63344;46.980;28.882;2023-08-06T08:46:29;99406.72;;;34.55;43.34
71857;BME280;63344;46.980;28.882;2023-08-06T08:49:21;99392.72;;;35.58;38.11
71857;BME280;63344;46.980;28.882;2023-08-06T08:52:25;99390.03;;;35.63;37.15
71857;BME280;63344;46.980;28.882;2023-08-06T08:55:20;99396.13;;;36.04;36.36
71857;BME280;63344;46.980;28.882;2023-08-06T08:58:10;99392.91;;;36.35;36.62
71857;BME280;63344;46.980;28.882;2023-08-06T09:01:03;99394.41;;;37.02;35.55
71857;BME280;63344;46.980;28.882;2023-08-06T09:04:08;99378.88;;;36.96;34.34
71857;BME280;63344;46.980;28.882;2023-08-06T09:07:03;99379.75;;;37.01;33.57
71857;BME280;63344;46.980;28.882;2023-08-06T09:10:11;99371.84;;;37.58;34.41
71857;BME280;63344;46.980;28.882;2023-08-06T09:13:06;99365.94;;;38.91;31.10
71857;BME280;63344;46.980;28.882;2023-08-06T09:16:08;99373.34;;;39.67;31.72
71857;BME280;63344;46.980;28.882;2023-08-06T09:19:09;99363.09;;;40.28;29.19
71857;BME280;63344;46.980;28.882;2023-08-06T09:21:59;99356.22;;;40.99;29.12
71857;BME280;63344;46.980;28.882;2023-08-06T09:25:00;99363.66;;;41.09;27.19
71857;BME280;63344;46.980;28.882;2023-08-06T09:27:29;99358.56;;;41.16;27.50
71857;BME280;63344;46.980;28.882;2023-08-06T09:31:00;99345.44;;;41.22;26.45
71857;BME280;63344;46.980;28.882;2023-08-06T09:33:44;99350.88;;;41.37;26.02
71857;BME280;63344;46.980;28.882;2023-08-06T09:36:48;99337.22;;;42.08;27.02
71857;BME280;63344;46.980;28.882;2023-08-06T09:39:30;99342.34;;;43.09;25.92
71857;BME280;63344;46.980;28.882;2023-08-06T09:42:36;99330.75;;;43.02;24.65
71857;BME280;63344;46.980;28.882;2023-08-06T09:45:19;99327.41;;;43.33;23.20
71857;BME280;63344;46.980;28.882;2023-08-06T09:48:13;99322.25;;;43.07;22.91
71857;BME280;63344;46.980;28.882;2023-08-06T09:51:02;99315.00;;;41.97;22.96
71857;BME280;63344;46.980;28.882;2023-08-06T09:53:33;99302.66;;;42.42;24.00
71857;BME280;63344;46.980;28.882;2023-08-06T09:56:21;99294.97;;;42.33;22.76
71857;BME280;63344;46.980;28.882;2023-08-06T09:59:15;99298.59;;;42.15;22.92
71857;BME280;63344;46.980;28.882;2023-08-06T10:02:00;99283.13;;;42.61;23.21
71857;BME280;63344;46.980;28.882;2023-08-06T10:04:45;99289.69;;;42.84;22.42
71857;BME280;63344;46.980;28.882;2023-08-06T10:07:30;99278.78;;;42.68;22.72
71857;BME280;63344;46.980;28.882;2023-08-06T10:10:11;99274.59;;;42.14;24.14
71857;BME280;63344;46.980;28.882;2023-08-06T10:13:01;99273.97;;;41.55;24.08
71857;BME280;63344;46.980;28.882;2023-08-06T10:16:23;99266.97;;;40.46;24.68
71857;BME280;63344;46.980;28.882;2023-08-06T10:19:32;99252.72;;;39.58;25.74
71857;BME280;63344;46.980;28.882;2023-08-06T10:22:43;99261.22;;;38.86;27.07
71857;BME280;63344;46.980;28.882;2023-08-06T10:25:53;99251.56;;;38.53;27.58
71857;BME280;63344;46.980;28.882;2023-08-06T10:28:47;99251.44;;;37.96;28.17
71857;BME280;63344;46.980;28.882;2023-08-06T10:32:00;99237.97;;;37.52;28.77
71857;BME280;63344;46.980;28.882;2023-08-06T10:38:30;99239.81;;;36.83;29.69
71857;BME280;63344;46.980;28.882;2023-08-06T10:41:37;99246.53;;;36.60;30.64
71857;BME280;63344;46.980;28.882;2023-08-06T10:47:45;99242.16;;;36.32;28.83
71857;BME280;63344;46.980;28.882;2023-08-06T10:50:30;99228.19;;;36.17;29.81
71857;BME280;63344;46.980;28.882;2023-08-06T10:53:43;99223.88;;;36.04;29.60
71857;BME280;63344;46.980;28.882;2023-08-06T10:56:47;99214.41;;;36.22;30.13
71857;BME280;63344;46.980;28.882;2023-08-06T11:00:11;99222.44;;;35.96;30.29
71857;BME280;63344;46.980;28.882;2023-08-06T11:03:24;99223.69;;;35.83;30.16
71857;BME280;63344;46.980;28.882;2023-08-06T11:06:42;99211.78;;;35.61;30.00
71857;BME280;63344;46.980;28.882;2023-08-06T11:10:06;99205.84;;;35.47;30.29
71857;BME280;63344;46.980;28.882;2023-08-06T11:13:01;99206.03;;;35.40;30.78
71857;BME280;63344;46.980;28.882;2023-08-06T11:15:45;99197.38;;;35.32;31.42
71857;BME280;63344;46.980;28.882;2023-08-06T11:18:53;99179.97;;;35.09;31.70
71857;BME280;63344;46.980;28.882;2023-08-06T11:21:55;99183.84;;;34.91;31.83
71857;BME280;63344;46.980;28.882;2023-08-06T11:24:41;99178.84;;;34.88;32.33
71857;BME280;63344;46.980;28.882;2023-08-06T11:27:32;99158.38;;;34.84;31.87
71857;BME280;63344;46.980;28.882;2023-08-06T11:30:49;99165.09;;;34.71;32.54
71857;BME280;63344;46.980;28.882;2023-08-06T11:33:53;99161.31;;;34.60;32.89
71857;BME280;63344;46.980;28.882;2023-08-06T11:37:08;99150.31;;;34.43;33.31
71857;BME280;63344;46.980;28.882;2023-08-06T11:39:57;99132.25;;;34.36;33.62
71857;BME280;63344;46.980;28.882;2023-08-06T11:42:52;99141.38;;;34.36;34.00
71857;BME280;63344;46.980;28.882;2023-08-06T11:45:51;99131.44;;;34.35;34.35
71857;BME280;63344;46.980;28.882;2023-08-06T11:48:50;99129.56;;;34.41;33.94
71857;BME280;63344;46.980;28.882;2023-08-06T11:51:45;99124.47;;;34.32;34.79
71857;BME280;63344;46.980;28.882;2023-08-06T11:55:05;99127.75;;;34.29;34.75
71857;BME280;63344;46.980;28.882;2023-08-06T11:58:12;99123.16;;;34.35;35.13
71857;BME280;63344;46.980;28.882;2023-08-06T12:01:01;99129.84;;;34.39;34.49
71857;BME280;63344;46.980;28.882;2023-08-06T12:03:59;99124.91;;;34.41;33.70
71857;BME280;63344;46.980;28.882;2023-08-06T12:06:55;99105.53;;;34.36;32.54
71857;BME280;63344;46.980;28.882;2023-08-06T12:09:52;99104.34;;;34.32;32.65
71857;BME280;63344;46.980;28.882;2023-08-06T12:13:09;99101.50;;;34.27;33.30
71857;BME280;63344;46.980;28.882;2023-08-06T12:15:54;99097.84;;;34.38;33.52
71857;BME280;63344;46.980;28.882;2023-08-06T12:18:36;99088.47;;;34.39;33.07
71857;BME280;63344;46.980;28.882;2023-08-06T12:21:26;99092.47;;;34.48;33.29
71857;BME280;63344;46.980;28.882;2023-08-06T12:24:02;99085.78;;;34.44;32.70
71857;BME280;63344;46.980;28.882;2023-08-06T12:26:51;99082.44;;;34.42;33.37
71857;BME280;63344;46.980;28.882;2023-08-06T12:29:43;99079.78;;;34.47;33.45
71857;BME280;63344;46.980;28.882;2023-08-06T12:32:26;99077.25;;;34.46;32.70
71857;BME280;63344;46.980;28.882;2023-08-06T12:35:14;99059.56;;;34.42;33.03
71857;BME280;63344;46.980;28.882;2023-08-06T12:38:06;99055.34;;;34.56;33.49
71857;BME280;63344;46.980;28.882;2023-08-06T12:40:47;99060.66;;;34.63;33.87
71857;BME280;63344;46.980;28.882;2023-08-06T12:43:53;99045.03;;;34.68;33.28
71857;BME280;63344;46.980;28.882;2023-08-06T12:46:26;99048.78;;;34.79;34.43
71857;BME280;63344;46.980;28.882;2023-08-06T12:49:39;99039.75;;;34.89;33.82
71857;BME280;63344;46.980;28.882;2023-08-06T12:52:32;99035.69;;;35.19;33.31
71857;BME280;63344;46.980;28.882;2023-08-06T12:55:14;99038.31;;;35.30;33.01
71857;BME280;63344;46.980;28.882;2023-08-06T12:58:15;99031.91;;;35.25;31.73
71857;BME280;63344;46.980;28.882;2023-08-06T13:01:00;99028.88;;;35.26;32.10
71857;BME280;63344;46.980;28.882;2023-08-06T13:03:45;99015.19;;;35.15;32.78
71857;BME280;63344;46.980;28.882;2023-08-06T13:06:40;99026.97;;;35.05;32.76
71857;BME280;63344;46.980;28.882;2023-08-06T13:09:35;99022.88;;;35.07;32.08
71857;BME280;63344;46.980;28.882;2023-08-06T13:12:29;99010.13;;;35.01;32.23
71857;BME280;63344;46.980;28.882;2023-08-06T13:15:13;99018.91;;;34.98;32.75
71857;BME280;63344;46.980;28.882;2023-08-06T13:18:06;99007.53;;;34.95;32.08
71857;BME280;63344;46.980;28.882;2023-08-06T13:20:39;98998.97;;;34.91;32.88
71857;BME280;63344;46.980;28.882;2023-08-06T13:23:26;99004.31;;;35.03;33.70
71857;BME280;63344;46.980;28.882;2023-08-06T13:26:10;99008.69;;;34.99;32.34
71857;BME280;63344;46.980;28.882;2023-08-06T13:29:29;98997.38;;;34.95;33.02
71857;BME280;63344;46.980;28.882;2023-08-06T13:32:14;99001.44;;;34.92;33.57
71857;BME280;63344;46.980;28.882;2023-08-06T13:34:56;98992.56;;;34.85;34.13
71857;BME280;63344;46.980;28.882;2023-08-06T13:37:57;98974.00;;;34.81;33.69
71857;BME280;63344;46.980;28.882;2023-08-06T13:40:38;98979.72;;;34.74;33.48
71857;BME280;63344;46.980;28.882;2023-08-06T13:43:24;98985.94;;;34.64;33.67
71857;BME280;63344;46.980;28.882;2023-08-06T13:45:57;98978.94;;;34.57;34.05
71857;BME280;63344;46.980;28.882;2023-08-06T13:48:40;98970.94;;;34.55;34.01
71857;BME280;63344;46.980;28.882;2023-08-06T13:51:37;98971.78;;;34.56;34.31
71857;BME280;63344;46.980;28.882;2023-08-06T13:54:13;98978.13;;;34.56;34.13
71857;BME280;63344;46.980;28.882;2023-08-06T13:57:21;98986.63;;;34.55;35.11
71857;BME280;63344;46.980;28.882;2023-08-06T14:00:40;98976.63;;;34.48;34.35
71857;BME280;63344;46.980;28.882;2023-08-06T14:03:43;98969.47;;;34.47;34.61
71857;BME280;63344;46.980;28.882;2023-08-06T14:07:04;98976.47;;;34.55;34.88
71857;BME280;63344;46.980;28.882;2023-08-06T14:10:14;98965.72;;;34.59;34.87
71857;BME280;63344;46.980;28.882;2023-08-06T14:13:22;98962.16;;;34.58;34.90
71857;BME280;63344;46.980;28.882;2023-08-06T14:16:03;98959.28;;;34.48;35.35
71857;BME280;63344;46.980;28.882;2023-08-06T14:19:01;98958.91;;;34.39;35.52
71857;BME280;63344;46.980;28.882;2023-08-06T14:21:34;98954.13;;;34.35;35.33
71857;BME280;63344;46.980;28.882;2023-08-06T14:24:34;98965.16;;;34.35;35.32
71857;BME280;63344;46.980;28.882;2023-08-06T14:27:24;98955.00;;;34.35;35.37
71857;BME280;63344;46.980;28.882;2023-08-06T14:30:08;98967.28;;;34.27;35.86
71857;BME280;63344;46.980;28.882;2023-08-06T14:32:57;98968.56;;;34.20;36.40
71857;BME280;63344;46.980;28.882;2023-08-06T14:35:54;98963.63;;;34.22;36.08
71857;BME280;63344;46.980;28.882;2023-08-06T14:38:55;98964.28;;;34.12;35.67
71857;BME280;63344;46.980;28.882;2023-08-06T14:42:03;98952.88;;;34.03;36.39
71857;BME280;63344;46.980;28.882;2023-08-06T14:44:45;98960.00;;;33.99;36.32
71857;BME280;63344;46.980;28.882;2023-08-06T14:47:23;98957.75;;;33.96;36.21
71857;BME280;63344;46.980;28.882;2023-08-06T14:50:29;98950.28;;;33.97;35.66
71857;BME280;63344;46.980;28.882;2023-08-06T14:53:08;98947.22;;;33.93;36.62